Time;durP1;ratioP1;P1;durP2;ratioP2;P2;SDS_P1;SDS_P2;PMS_P1;PMS_P2;Temp;Humidity;BMP_temperature;BMP_pressure;BME280_temperature;BME280_humidity;BME280_pressure;Samples;Min_cycle;Max_cycle;Signal;HPM_P1;HPM_P2
2021/10/01 00:02:28;;;;;;;6.87;3.27;;;9.90;1.00;;;;;;5017771;28;20534;-89
2021/10/01 00:05:19;;;;;;;4.20;3.20;;;9.80;1.00;;;;;;5030342;28;20456;-88
2021/10/01 00:07:52;;;;;;;5.73;3.13;;;9.80;1.00;;;;;;5035051;28;20468;-88
2021/10/01 00:13:38;;;;;;;3.92;3.30;;;9.80;1.00;;;;;;5029429;28;20441;-88
2021/10/01 00:22:26;;;;;;;5.38;3.70;;;9.80;1.00;;;;;;5024579;28;20247;-85
2021/10/01 00:24:53;;;;;;;5.13;4.55;;;9.70;1.00;;;;;;5046643;28;20246;-86
2021/10/01 00:27:20;;;;;;;6.13;3.45;;;9.70;1.00;;;;;;5082290;28;20209;-85
2021/10/01 00:29:47;;;;;;;4.72;3.50;;;9.60;1.00;;;;;;5054243;28;20246;-85
2021/10/01 00:32:14;;;;;;;7.50;3.60;;;9.60;1.00;;;;;;5044355;28;20323;-85
2021/10/01 00:34:41;;;;;;;4.20;3.42;;;9.60;1.00;;;;;;5038472;28;20487;-85
2021/10/01 00:37:08;;;;;;;4.70;3.83;;;9.60;1.00;;;;;;5032238;28;20229;-85
2021/10/01 00:39:37;;;;;;;4.00;3.60;;;9.60;1.00;;;;;;5034819;28;21749;-85
2021/10/01 00:42:04;;;;;;;5.53;4.03;;;9.60;1.00;;;;;;5039643;28;20467;-85
2021/10/01 00:44:31;;;;;;;4.63;4.10;;;9.60;1.00;;;;;;5048632;28;20247;-85
2021/10/01 00:46:58;;;;;;;3.90;3.53;;;9.60;1.00;;;;;;5038206;28;21342;-86
2021/10/01 00:49:25;;;;;;;4.28;3.67;;;9.60;1.00;;;;;;5035195;28;20464;-85
2021/10/01 00:51:53;;;;;;;4.97;3.65;;;9.60;1.00;;;;;;5032514;28;20225;-84
2021/10/01 00:54:20;;;;;;;6.67;3.93;;;9.60;1.00;;;;;;5044367;28;20284;-84
2021/10/01 00:56:50;;;;;;;4.43;4.03;;;9.50;1.00;;;;;;5048971;28;20446;-85
2021/10/01 00:59:16;;;;;;;5.90;3.90;;;9.40;1.00;;;;;;5043923;28;20522;-85
2021/10/01 01:01:43;;;;;;;3.70;3.40;;;9.40;1.00;;;;;;5035665;28;20524;-85
2021/10/01 01:04:11;;;;;;;4.15;3.75;;;9.30;1.00;;;;;;5047603;28;20441;-84
2021/10/01 01:06:48;;;;;;;5.43;4.43;;;9.30;1.00;;;;;;5047839;28;20223;-87
2021/10/01 01:09:26;;;;;;;4.93;3.30;;;9.30;1.00;;;;;;5050136;28;20517;-85
2021/10/01 01:12:05;;;;;;;7.33;3.57;;;9.30;1.00;;;;;;5045825;28;20471;-84
2021/10/01 01:14:37;;;;;;;6.20;3.67;;;9.40;1.00;;;;;;5053031;28;20524;-85
2021/10/01 01:17:07;;;;;;;5.27;3.50;;;9.40;1.00;;;;;;5050667;28;20231;-84
2021/10/01 01:19:54;;;;;;;5.20;3.50;;;9.30;1.00;;;;;;5049847;28;20525;-86
2021/10/01 01:22:30;;;;;;;5.32;3.40;;;9.30;1.00;;;;;;5052167;28;20480;-85
2021/10/01 01:25:15;;;;;;;5.07;3.72;;;9.30;1.00;;;;;;5050605;28;20246;-84
2021/10/01 01:27:56;;;;;;;4.10;3.70;;;9.30;1.00;;;;;;5051646;28;20259;-84
2021/10/01 01:30:24;;;;;;;5.20;4.32;;;9.30;1.00;;;;;;5062643;28;20452;-84
2021/10/01 01:32:58;;;;;;;4.25;3.55;;;9.30;1.00;;;;;;5069119;28;20230;-85
2021/10/01 01:35:27;;;;;;;4.30;3.90;;;9.30;1.00;;;;;;5064367;28;20238;-85
2021/10/01 01:37:59;;;;;;;3.40;3.10;;;9.30;1.00;;;;;;5071543;28;20252;-86
2021/10/01 01:40:29;;;;;;;4.20;3.58;;;9.20;1.00;;;;;;5071760;28;20427;-86
2021/10/01 01:43:06;;;;;;;3.95;3.20;;;9.30;1.00;;;;;;5077249;28;20282;-86
2021/10/01 01:45:36;;;;;;;4.10;3.03;;;9.20;1.00;;;;;;5047413;28;20302;-86
2021/10/01 01:48:06;;;;;;;4.80;3.43;;;9.20;1.00;;;;;;5060746;28;20458;-85
2021/10/01 01:50:33;;;;;;;5.90;3.70;;;9.20;1.00;;;;;;5050321;28;21408;-86
2021/10/01 01:53:01;;;;;;;5.07;3.53;;;9.20;1.00;;;;;;5045449;28;20484;-86
2021/10/01 01:55:30;;;;;;;3.20;2.90;;;9.20;1.00;;;;;;5058299;28;20231;-86
2021/10/01 01:57:59;;;;;;;7.70;3.53;;;9.20;1.00;;;;;;5058238;28;20228;-85
2021/10/01 02:00:28;;;;;;;3.70;3.30;;;9.20;1.00;;;;;;5052596;28;20244;-84
2021/10/01 02:02:58;;;;;;;3.80;3.15;;;9.20;1.00;;;;;;5052009;28;20462;-85
2021/10/01 02:05:27;;;;;;;6.30;3.42;;;9.20;1.00;;;;;;5040376;28;20231;-85
2021/10/01 02:07:56;;;;;;;5.33;3.30;;;9.20;1.00;;;;;;5049295;28;20227;-85
2021/10/01 02:10:25;;;;;;;3.70;3.30;;;9.20;1.00;;;;;;5049226;28;22747;-86
2021/10/01 02:12:56;;;;;;;4.55;3.70;;;9.20;1.00;;;;;;5033584;28;20678;-86
2021/10/01 02:15:25;;;;;;;4.50;3.00;;;9.10;1.00;;;;;;5051608;28;20229;-86
2021/10/01 02:17:55;;;;;;;4.40;3.60;;;9.10;1.00;;;;;;5035988;28;20233;-85
2021/10/01 02:20:23;;;;;;;3.90;3.47;;;9.10;1.00;;;;;;5050999;28;20460;-85
2021/10/01 02:22:52;;;;;;;4.18;3.22;;;9.20;1.00;;;;;;5054910;28;20547;-85
2021/10/01 02:28:08;;;;;;;4.83;3.17;;;9.10;1.00;;;;;;5032439;28;20252;-85
2021/10/01 02:30:40;;;;;;;6.90;4.23;;;9.10;1.00;;;;;;5048532;28;20427;-86
2021/10/01 02:33:17;;;;;;;5.00;3.25;;;9.10;1.00;;;;;;5051480;28;20552;-85
2021/10/01 02:35:46;;;;;;;4.80;3.40;;;9.10;1.00;;;;;;5049418;28;20419;-86
2021/10/01 02:38:14;;;;;;;4.15;3.70;;;9.00;1.00;;;;;;5079265;27;20280;-85
2021/10/01 02:40:41;;;;;;;5.10;4.15;;;9.00;1.00;;;;;;5080842;27;20220;-85
2021/10/01 02:43:09;;;;;;;6.30;4.20;;;9.00;1.00;;;;;;5059515;28;20729;-86
2021/10/01 02:45:35;;;;;;;6.05;4.60;;;8.90;1.00;;;;;;5058003;28;20506;-86
2021/10/01 02:48:05;;;;;;;7.85;4.10;;;8.90;1.00;;;;;;5030932;28;20323;-86
2021/10/01 02:50:32;;;;;;;4.05;3.67;;;8.90;1.00;;;;;;5058740;28;22326;-85
2021/10/01 02:53:06;;;;;;;8.73;3.95;;;8.80;1.00;;;;;;5070262;28;20213;-85
2021/10/01 02:55:41;;;;;;;8.23;7.45;;;8.80;1.00;;;;;;5070029;28;20225;-85
2021/10/01 02:58:14;;;;;;;6.07;4.15;;;8.80;1.00;;;;;;5052660;28;20238;-85
2021/10/01 03:00:41;;;;;;;6.45;4.03;;;8.70;1.00;;;;;;5059626;28;20209;-84
2021/10/01 03:03:11;;;;;;;4.82;4.25;;;8.70;1.00;;;;;;5046679;28;20249;-84
2021/10/01 03:05:41;;;;;;;5.07;4.00;;;8.70;1.00;;;;;;5050868;28;20229;-85
2021/10/01 03:08:09;;;;;;;6.25;4.03;;;8.70;1.00;;;;;;5052117;28;20221;-85
2021/10/01 03:10:39;;;;;;;7.13;4.38;;;8.60;1.00;;;;;;5051311;28;21082;-85
2021/10/01 03:13:09;;;;;;;4.95;3.92;;;8.60;1.00;;;;;;5034109;28;20235;-84
2021/10/01 03:15:36;;;;;;;4.40;4.00;;;8.60;1.00;;;;;;5041423;28;20223;-83
2021/10/01 03:18:03;;;;;;;4.80;4.03;;;8.60;1.00;;;;;;5055933;28;20258;-85
2021/10/01 03:20:31;;;;;;;5.70;4.38;;;8.60;1.00;;;;;;5058341;28;21137;-84
2021/10/01 03:23:00;;;;;;;9.00;5.45;;;8.50;1.00;;;;;;5060791;28;20230;-85
2021/10/01 03:25:28;;;;;;;5.15;3.97;;;8.50;1.00;;;;;;5063355;28;20982;-85
2021/10/01 03:27:57;;;;;;;5.30;3.90;;;8.40;1.00;;;;;;5059793;28;20231;-85
2021/10/01 03:30:24;;;;;;;7.97;4.40;;;8.40;1.00;;;;;;5038698;28;20233;-85
2021/10/01 03:32:51;;;;;;;5.18;4.65;;;8.40;1.00;;;;;;5062158;28;20225;-84
2021/10/01 03:35:18;;;;;;;4.95;4.45;;;8.40;1.00;;;;;;5043337;28;20496;-86
2021/10/01 03:37:46;;;;;;;5.78;4.60;;;8.40;1.00;;;;;;5061365;28;20230;-86
2021/10/01 03:40:14;;;;;;;6.75;4.70;;;8.30;1.00;;;;;;5076427;28;20213;-85
2021/10/01 03:42:42;;;;;;;5.15;4.43;;;8.30;1.00;;;;;;5075113;28;20225;-85
2021/10/01 03:45:11;;;;;;;5.03;4.53;;;8.30;1.00;;;;;;5059422;28;21012;-85
2021/10/01 03:47:38;;;;;;;8.15;5.20;;;8.30;1.00;;;;;;5064820;28;20285;-87
2021/10/01 03:50:07;;;;;;;5.20;4.80;;;8.20;1.00;;;;;;5064232;28;20210;-84
2021/10/01 03:52:33;;;;;;;6.00;4.20;;;8.20;1.00;;;;;;5076111;28;20329;-85
2021/10/01 03:55:03;;;;;;;7.20;4.65;;;8.20;1.00;;;;;;5090773;28;20229;-85
2021/10/01 03:57:30;;;;;;;7.70;6.47;;;8.20;1.00;;;;;;5062435;28;20285;-85
2021/10/01 03:59:57;;;;;;;5.35;4.13;;;8.10;1.00;;;;;;5064895;28;21074;-85
2021/10/01 04:02:25;;;;;;;6.88;4.47;;;8.10;1.00;;;;;;5076655;28;23526;-84
2021/10/01 04:04:52;;;;;;;7.70;4.70;;;8.00;1.00;;;;;;5051638;28;20234;-84
2021/10/01 04:07:19;;;;;;;6.47;4.88;;;8.00;1.00;;;;;;5058483;28;21755;-84
2021/10/01 04:09:45;;;;;;;5.78;5.25;;;8.00;1.00;;;;;;5058779;28;20281;-85
2021/10/01 04:12:12;;;;;;;6.50;4.80;;;7.90;1.00;;;;;;5059600;28;20292;-86
2021/10/01 04:14:39;;;;;;;5.97;5.20;;;7.90;1.00;;;;;;5058262;28;21077;-86
2021/10/01 04:17:06;;;;;;;5.47;4.97;;;7.90;1.00;;;;;;5049918;28;20221;-86
2021/10/01 04:19:36;;;;;;;7.55;6.03;;;7.90;1.00;;;;;;5054258;28;20217;-83
2021/10/01 04:22:03;;;;;;;7.55;4.85;;;7.90;1.00;;;;;;5053689;28;21381;-84
2021/10/01 04:24:30;;;;;;;4.82;4.32;;;7.90;1.00;;;;;;5056282;28;20713;-84
2021/10/01 04:26:57;;;;;;;4.82;4.30;;;7.90;1.00;;;;;;5063517;28;21353;-80
2021/10/01 04:29:24;;;;;;;8.88;5.63;;;7.90;1.00;;;;;;5057179;28;20230;-83
2021/10/01 04:31:51;;;;;;;5.95;4.90;;;8.00;1.00;;;;;;5053283;28;20218;-84
2021/10/01 04:34:18;;;;;;;7.78;5.65;;;8.00;1.00;;;;;;5058818;28;20271;-86
2021/10/01 04:36:46;;;;;;;11.38;6.18;;;8.00;1.00;;;;;;5062587;28;20309;-83
2021/10/01 04:39:13;;;;;;;5.45;4.75;;;8.00;1.00;;;;;;5051705;28;20222;-82
2021/10/01 04:41:41;;;;;;;9.82;4.95;;;8.00;1.00;;;;;;5054054;28;20231;-80
2021/10/01 04:44:08;;;;;;;7.57;4.97;;;8.00;1.00;;;;;;5054811;28;20233;-81
2021/10/01 04:46:35;;;;;;;5.53;4.90;;;8.00;1.00;;;;;;5067536;28;20226;-79
2021/10/01 04:49:01;;;;;;;6.72;5.10;;;8.00;1.00;;;;;;5076888;28;20280;-79
2021/10/01 04:51:28;;;;;;;6.00;4.60;;;8.00;1.00;;;;;;5065456;28;20237;-81
2021/10/01 04:54:01;;;;;;;8.50;6.40;;;8.00;1.00;;;;;;5051433;28;20634;-82
2021/10/01 04:56:28;;;;;;;7.68;4.72;;;8.10;1.00;;;;;;5054183;28;20774;-82
2021/10/01 04:58:55;;;;;;;6.82;5.05;;;8.10;1.00;;;;;;5033710;28;20327;-79
2021/10/01 05:01:22;;;;;;;6.80;4.88;;;8.20;1.00;;;;;;5048315;28;20218;-79
2021/10/01 05:03:48;;;;;;;5.30;4.40;;;8.10;1.00;;;;;;5034622;28;20232;-82
2021/10/01 05:06:15;;;;;;;4.60;4.05;;;8.10;1.00;;;;;;5049755;28;20632;-81
2021/10/01 05:08:42;;;;;;;5.35;4.30;;;8.10;1.00;;;;;;5045293;28;20924;-81
2021/10/01 05:11:10;;;;;;;5.70;5.13;;;8.20;1.00;;;;;;5050972;28;20218;-82
2021/10/01 05:13:37;;;;;;;10.70;5.45;;;8.10;1.00;;;;;;5031827;28;20686;-81
2021/10/01 05:16:04;;;;;;;6.20;5.60;;;8.10;1.00;;;;;;5052591;28;20346;-82
2021/10/01 05:18:31;;;;;;;6.35;4.80;;;8.10;1.00;;;;;;5042274;28;22320;-81
2021/10/01 05:21:02;;;;;;;8.60;5.15;;;8.10;1.00;;;;;;5052029;28;20710;-79
2021/10/01 05:23:32;;;;;;;5.03;4.50;;;8.10;1.00;;;;;;5058857;28;21402;-80
2021/10/01 05:26:00;;;;;;;7.43;5.60;;;8.10;1.00;;;;;;5048923;28;20230;-78
2021/10/01 05:28:28;;;;;;;7.88;5.57;;;8.10;1.00;;;;;;5051132;28;20252;-80
2021/10/01 05:30:54;;;;;;;6.72;4.80;;;8.10;1.00;;;;;;5046870;28;20766;-80
2021/10/01 05:33:21;;;;;;;5.25;4.68;;;8.10;1.00;;;;;;5048683;28;20222;-79
2021/10/01 05:35:48;;;;;;;5.15;4.65;;;8.20;1.00;;;;;;5033700;28;20224;-79
2021/10/01 05:38:16;;;;;;;6.78;5.45;;;8.20;1.00;;;;;;5051118;28;20309;-79
2021/10/01 05:40:43;;;;;;;5.22;4.57;;;8.30;1.00;;;;;;5053334;28;20224;-80
2021/10/01 05:43:10;;;;;;;6.88;6.18;;;8.30;1.00;;;;;;5038391;28;20227;-79
2021/10/01 05:45:40;;;;;;;6.43;4.90;;;8.40;1.00;;;;;;5048090;28;20235;-78
2021/10/01 05:48:07;;;;;;;8.80;5.25;;;8.40;1.00;;;;;;5051958;28;20225;-77
2021/10/01 05:50:38;;;;;;;12.93;9.55;;;8.50;1.00;;;;;;5057680;28;21000;-78
2021/10/01 05:53:06;;;;;;;9.63;5.60;;;8.60;1.00;;;;;;5045612;28;20313;-79
2021/10/01 05:55:33;;;;;;;8.85;4.97;;;8.70;1.00;;;;;;5048708;28;20228;-80
2021/10/01 05:58:01;;;;;;;5.30;4.53;;;8.80;1.00;;;;;;5049347;28;20237;-79
2021/10/01 06:00:27;;;;;;;9.07;5.10;;;8.80;1.00;;;;;;5045516;28;20468;-80
2021/10/01 06:02:56;;;;;;;9.20;5.70;;;8.80;1.00;;;;;;5043406;28;20219;-80
2021/10/01 06:05:23;;;;;;;6.40;5.10;;;8.90;1.00;;;;;;5041711;28;20245;-79
2021/10/01 06:07:50;;;;;;;8.80;5.13;;;8.90;1.00;;;;;;5050369;28;20227;-79
2021/10/01 06:10:16;;;;;;;9.60;4.97;;;8.80;1.00;;;;;;5043841;28;20462;-79
2021/10/01 06:12:43;;;;;;;9.25;5.40;;;8.90;1.00;;;;;;5046864;28;20490;-79
2021/10/01 06:15:11;;;;;;;9.35;5.97;;;8.90;1.00;;;;;;5051400;28;20223;-79
2021/10/01 06:17:38;;;;;;;8.40;5.20;;;9.00;1.00;;;;;;5045259;28;21357;-79
2021/10/01 06:20:09;;;;;;;9.52;6.70;;;9.00;1.00;;;;;;5058009;28;20663;-79
2021/10/01 06:22:38;;;;;;;8.30;6.50;;;9.20;1.00;;;;;;5057608;28;20225;-83
2021/10/01 06:25:05;;;;;;;8.73;5.33;;;9.30;1.00;;;;;;5058940;28;20241;-80
2021/10/01 06:27:32;;;;;;;9.20;6.37;;;9.30;1.00;;;;;;5054628;28;20460;-80
2021/10/01 06:29:59;;;;;;;8.63;5.50;;;9.30;1.00;;;;;;5055482;28;20493;-79
2021/10/01 06:32:30;;;;;;;9.05;5.40;;;9.40;1.00;;;;;;5050648;28;20452;-80
2021/10/01 06:34:57;;;;;;;9.17;5.03;;;9.50;1.00;;;;;;5051030;28;20219;-80
2021/10/01 06:37:25;;;;;;;5.10;4.00;;;9.60;1.00;;;;;;5057758;28;21037;-78
2021/10/01 06:39:51;;;;;;;8.97;4.70;;;9.70;1.00;;;;;;5046660;28;20461;-79
2021/10/01 06:42:19;;;;;;;10.10;5.03;;;9.90;1.00;;;;;;5055740;28;20438;-79
2021/10/01 06:44:49;;;;;;;5.20;4.70;;;10.00;1.00;;;;;;5053300;28;20240;-79
2021/10/01 06:47:19;;;;;;;6.87;5.37;;;10.20;1.00;;;;;;5055400;28;21762;-78
2021/10/01 06:49:55;;;;;;;7.13;4.20;;;10.40;1.00;;;;;;5070138;28;20444;-78
2021/10/01 07:23:00;;;;;;;5.20;3.03;;;11.60;1.00;;;;;;5053306;28;20464;-80
2021/10/01 07:37:04;;;;;;;4.57;3.00;;;11.70;1.00;;;;;;5055862;28;21245;-79
2021/10/01 07:45:49;;;;;;;4.23;2.40;;;11.90;1.00;;;;;;4964519;28;20468;-79
2021/10/01 08:18:50;;;;;;;2.13;1.90;;;12.80;1.00;;;;;;5003250;28;20462;-78
2021/10/01 08:21:23;;;;;;;3.07;2.47;;;13.00;1.00;;;;;;5051402;28;20463;-78
2021/10/01 08:23:49;;;;;;;2.70;2.00;;;13.10;1.00;;;;;;5049602;28;20460;-78
2021/10/01 08:26:16;;;;;;;2.33;2.13;;;13.30;1.00;;;;;;5049446;28;20466;-78
2021/10/01 08:28:43;;;;;;;2.90;1.90;;;13.50;1.00;;;;;;5045394;28;20452;-77
2021/10/01 08:31:09;;;;;;;4.57;2.07;;;13.70;1.00;;;;;;5045116;28;20449;-78
2021/10/01 08:33:38;;;;;;;2.50;1.80;;;13.80;1.00;;;;;;5046432;28;20703;-79
2021/10/01 08:36:05;;;;;;;5.50;2.30;;;14.00;1.00;;;;;;5053734;28;20455;-79
2021/10/01 08:38:32;;;;;;;5.00;2.30;;;14.10;1.00;;;;;;5059581;28;20466;-78
2021/10/01 08:40:58;;;;;;;2.43;2.10;;;14.30;1.00;;;;;;5051193;28;20499;-77
2021/10/01 08:43:26;;;;;;;5.33;1.70;;;14.50;1.00;;;;;;5048020;28;20443;-78
2021/10/01 08:45:53;;;;;;;3.47;2.00;;;14.80;1.00;;;;;;5050254;28;20435;-78
2021/10/01 08:48:20;;;;;;;3.60;3.03;;;15.30;1.00;;;;;;5047019;28;20460;-77
2021/10/01 08:50:48;;;;;;;3.90;2.40;;;15.80;1.00;;;;;;5053679;28;20496;-78
2021/10/01 08:53:15;;;;;;;2.70;2.03;;;16.30;1.00;;;;;;5049707;28;20462;-77
2021/10/01 08:55:46;;;;;;;3.80;2.47;;;17.00;1.00;;;;;;5050459;28;20437;-77
2021/10/01 08:58:14;;;;;;;4.00;2.00;;;17.40;1.00;;;;;;5057302;28;20466;-78
2021/10/01 09:00:41;;;;;;;4.70;1.73;;;17.80;1.00;;;;;;5052845;28;20462;-78
2021/10/01 09:03:09;;;;;;;2.60;2.13;;;18.50;1.00;;;;;;5044505;28;20474;-80
2021/10/01 09:05:35;;;;;;;3.37;1.57;;;19.20;1.00;;;;;;5044965;28;20455;-77
2021/10/01 09:08:12;;;;;;;4.40;1.67;;;19.60;1.00;;;;;;5043718;28;20473;-78
2021/10/01 09:10:39;;;;;;;4.27;2.07;;;19.60;1.00;;;;;;5038380;28;20446;-78
2021/10/01 09:13:09;;;;;;;4.33;2.30;;;19.70;1.00;;;;;;5034213;28;20460;-79
2021/10/01 09:15:40;;;;;;;4.37;1.70;;;19.70;1.00;;;;;;5044583;28;20460;-78
2021/10/01 09:18:07;;;;;;;2.97;1.70;;;20.20;1.00;;;;;;5048106;28;20545;-78
2021/10/01 09:20:34;;;;;;;3.90;2.00;;;20.40;1.00;;;;;;5048803;28;20504;-78
2021/10/01 09:23:14;;;;;;;4.27;2.20;;;20.70;1.00;;;;;;5054185;28;20465;-78
2021/10/01 09:25:42;;;;;;;2.40;1.70;;;21.20;1.00;;;;;;5044484;28;20488;-79
2021/10/01 09:28:12;;;;;;;3.60;1.80;;;21.10;1.00;;;;;;5043771;28;20429;-79
2021/10/01 09:30:45;;;;;;;2.77;1.53;;;20.90;1.00;;;;;;5040823;28;20543;-79
2021/10/01 09:33:13;;;;;;;3.10;1.60;;;20.70;1.00;;;;;;5043358;28;20498;-79
2021/10/01 09:35:42;;;;;;;3.40;1.83;;;21.00;1.00;;;;;;5045190;28;20465;-79
2021/10/01 09:38:13;;;;;;;2.80;1.97;;;21.30;1.00;;;;;;5045621;28;20452;-78
2021/10/01 09:40:42;;;;;;;3.30;1.47;;;21.60;1.00;;;;;;5043093;28;20574;-79
2021/10/01 09:43:28;;;;;;;3.20;2.00;;;21.60;1.00;;;;;;5039030;28;20457;-78
2021/10/01 09:46:03;;;;;;;3.70;1.63;;;21.20;1.00;;;;;;5041086;28;20530;-79
2021/10/01 09:48:29;;;;;;;3.20;1.70;;;21.20;1.00;;;;;;5046939;28;20471;-78
2021/10/01 09:51:07;;;;;;;3.30;1.33;;;21.40;1.00;;;;;;5044878;28;20565;-78
2021/10/01 09:53:43;;;;;;;5.30;1.60;;;21.50;1.00;;;;;;5047607;28;20420;-78
2021/10/01 09:56:20;;;;;;;2.80;1.60;;;22.20;1.00;;;;;;5052482;28;20562;-78
2021/10/01 09:59:04;;;;;;;5.80;1.53;;;22.60;1.00;;;;;;5045584;28;20877;-77
2021/10/01 10:01:31;;;;;;;3.23;1.70;;;23.10;1.00;;;;;;5044961;28;20454;-78
2021/10/01 10:03:58;;;;;;;3.00;1.20;;;23.40;1.00;;;;;;5048734;28;20560;-77
2021/10/01 10:06:25;;;;;;;2.90;1.23;;;23.60;1.00;;;;;;5047567;28;20513;-77
2021/10/01 10:09:01;;;;;;;2.90;1.60;;;24.00;1.00;;;;;;5047320;28;20460;-79
2021/10/01 10:11:39;;;;;;;2.70;1.80;;;24.10;1.00;;;;;;5048677;28;20530;-79
2021/10/01 10:14:09;;;;;;;2.87;1.50;;;23.90;1.00;;;;;;5049045;28;20417;-79
2021/10/01 10:16:36;;;;;;;2.13;1.40;;;23.90;1.00;;;;;;5050601;28;20446;-80
2021/10/01 10:19:05;;;;;;;3.30;1.50;;;24.80;1.00;;;;;;5047854;28;21702;-79
2021/10/01 10:21:32;;;;;;;4.57;1.70;;;25.50;1.00;;;;;;5052330;28;20516;-78
2021/10/01 10:24:00;;;;;;;3.70;1.43;;;26.30;1.00;;;;;;5062445;28;20447;-78
2021/10/01 10:26:27;;;;;;;3.67;1.60;;;26.50;1.00;;;;;;5052028;28;20530;-78
2021/10/01 10:28:57;;;;;;;5.77;1.77;;;26.50;1.00;;;;;;5051376;28;20476;-77
2021/10/01 10:31:27;;;;;;;2.27;1.30;;;25.30;1.00;;;;;;5048619;28;20914;-79
2021/10/01 10:33:56;;;;;;;2.53;1.30;;;24.30;1.00;;;;;;5040253;28;20462;-80
2021/10/01 10:36:41;;;;;;;4.20;1.57;;;24.00;1.00;;;;;;5045206;28;20591;-79
2021/10/01 10:39:41;;;;;;;2.87;1.67;;;25.00;1.00;;;;;;5051382;28;20632;-80
2021/10/01 10:42:14;;;;;;;3.33;1.20;;;26.00;1.00;;;;;;5062777;28;20436;-79
2021/10/01 10:44:48;;;;;;;5.23;1.77;;;26.80;1.00;;;;;;5054646;28;20465;-79
2021/10/01 10:47:40;;;;;;;3.33;1.50;;;27.00;1.00;;;;;;5046520;28;20459;-79
2021/10/01 10:50:33;;;;;;;4.43;1.30;;;27.20;1.00;;;;;;5043116;28;20458;-79
2021/10/01 10:53:32;;;;;;;2.70;1.40;;;26.60;1.00;;;;;;5046928;28;20427;-79
2021/10/01 10:56:16;;;;;;;1.90;1.27;;;26.80;1.00;;;;;;5045778;28;20454;-79
2021/10/01 10:58:50;;;;;;;4.00;1.30;;;27.40;1.00;;;;;;5048306;28;20466;-79
2021/10/01 11:01:36;;;;;;;2.13;1.20;;;28.10;1.00;;;;;;5048404;28;20456;-80
2021/10/01 11:04:38;;;;;;;3.17;1.30;;;28.20;1.00;;;;;;5052268;28;20470;-78
2021/10/01 11:07:07;;;;;;;3.63;1.40;;;27.40;1.00;;;;;;5049287;28;20479;-79
2021/10/01 11:09:35;;;;;;;1.97;1.20;;;26.40;1.00;;;;;;5046088;28;20559;-79
2021/10/01 11:12:22;;;;;;;2.63;1.70;;;25.30;1.00;;;;;;5051143;28;20451;-80
2021/10/01 11:15:13;;;;;;;3.00;1.60;;;24.90;1.00;;;;;;5050567;28;21295;-82
2021/10/01 11:17:40;;;;;;;3.00;1.57;;;24.80;1.00;;;;;;5057211;28;20438;-80
2021/10/01 11:20:07;;;;;;;2.47;1.40;;;25.10;1.00;;;;;;5059352;28;20454;-80
2021/10/01 11:22:39;;;;;;;3.17;1.63;;;25.30;1.00;;;;;;5054154;28;20460;-81
2021/10/01 11:25:12;;;;;;;2.50;1.70;;;25.90;1.00;;;;;;5057145;28;20537;-80
2021/10/01 11:27:52;;;;;;;5.10;1.90;;;26.50;1.00;;;;;;5054031;28;20443;-81
2021/10/01 11:30:19;;;;;;;3.03;1.70;;;26.30;1.00;;;;;;5038455;28;21110;-78
2021/10/01 11:32:46;;;;;;;2.67;1.70;;;26.20;1.00;;;;;;5055589;28;20461;-79
2021/10/01 11:35:16;;;;;;;3.55;1.70;;;26.00;1.00;;;;;;5052537;28;20427;-79
2021/10/01 11:37:46;;;;;;;2.00;1.27;;;26.20;1.00;;;;;;5038007;28;20303;-80
2021/10/01 11:40:20;;;;;;;2.13;1.23;;;26.00;1.00;;;;;;5054559;28;20453;-80
2021/10/01 11:42:49;;;;;;;2.90;1.13;;;26.20;1.00;;;;;;5064348;28;20962;-79
2021/10/01 11:45:19;;;;;;;3.33;1.43;;;27.10;1.00;;;;;;5075710;28;20457;-80
2021/10/01 11:47:54;;;;;;;3.03;1.80;;;28.00;1.00;;;;;;5073814;28;20419;-79
2021/10/01 11:50:29;;;;;;;1.70;1.10;;;28.80;1.00;;;;;;5073327;28;20421;-80
2021/10/01 11:52:58;;;;;;;6.80;1.70;;;29.40;1.00;;;;;;5078549;28;20451;-79
2021/10/01 11:55:27;;;;;;;3.40;1.30;;;29.00;1.00;;;;;;5082186;28;20432;-78
2021/10/01 11:57:53;;;;;;;6.10;1.63;;;29.00;1.00;;;;;;5074999;28;20486;-79
2021/10/01 12:00:23;;;;;;;2.47;1.20;;;29.70;1.00;;;;;;5077354;28;20527;-79
2021/10/01 12:02:51;;;;;;;2.20;0.97;;;30.50;1.00;;;;;;5065716;28;20456;-78
2021/10/01 12:05:32;;;;;;;1.93;1.33;;;31.20;1.00;;;;;;5071236;28;20423;-76
2021/10/01 12:08:01;;;;;;;5.93;1.40;;;31.90;1.00;;;;;;5070891;28;20438;-77
2021/10/01 12:10:30;;;;;;;4.07;1.20;;;31.70;1.00;;;;;;5074013;28;20422;-78
2021/10/01 12:13:13;;;;;;;3.20;1.67;;;31.10;1.00;;;;;;5075970;28;20436;-78
2021/10/01 12:15:48;;;;;;;2.53;0.93;;;31.10;1.00;;;;;;5076841;28;20400;-78
2021/10/01 12:18:35;;;;;;;3.40;1.20;;;31.70;1.00;;;;;;5080587;28;20453;-76
2021/10/01 12:21:05;;;;;;;2.70;1.23;;;31.70;1.00;;;;;;5078505;28;20485;-78
2021/10/01 12:23:35;;;;;;;1.97;1.20;;;31.80;1.00;;;;;;5077664;28;20485;-76
2021/10/01 12:26:17;;;;;;;3.03;1.20;;;31.50;1.00;;;;;;5079137;28;20433;-77
2021/10/01 12:28:58;;;;;;;3.23;1.20;;;31.30;1.00;;;;;;5084253;28;20401;-76
2021/10/01 12:31:29;;;;;;;2.27;1.30;;;30.50;1.00;;;;;;5069959;28;20434;-76
2021/10/01 12:33:58;;;;;;;2.37;1.20;;;29.40;1.00;;;;;;5047797;28;20464;-77
2021/10/01 12:36:25;;;;;;;2.87;0.87;;;27.90;1.00;;;;;;5044169;28;20458;-79
2021/10/01 12:38:54;;;;;;;2.60;1.07;;;26.40;1.00;;;;;;5052219;28;22117;-77
2021/10/01 12:41:21;;;;;;;2.57;0.90;;;24.90;1.00;;;;;;5056533;28;20493;-76
2021/10/01 12:43:50;;;;;;;1.73;1.13;;;24.50;1.00;;;;;;5070427;28;20427;-78
2021/10/01 12:46:35;;;;;;;1.80;0.93;;;24.20;1.00;;;;;;5077165;28;20691;-76
2021/10/01 12:49:21;;;;;;;3.17;1.23;;;23.90;1.00;;;;;;5078807;28;22985;-76
2021/10/01 12:52:11;;;;;;;2.43;0.90;;;23.40;1.00;;;;;;5084145;28;20405;-78
2021/10/01 12:54:44;;;;;;;2.67;1.20;;;22.80;1.00;;;;;;5087286;28;20466;-78
2021/10/01 12:57:20;;;;;;;2.70;1.00;;;22.50;1.00;;;;;;5082556;28;20534;-77
2021/10/01 12:59:49;;;;;;;3.00;0.97;;;22.30;1.00;;;;;;5079918;28;20450;-80
2021/10/01 13:02:19;;;;;;;3.90;1.40;;;22.00;1.00;;;;;;5084699;28;20474;-78
2021/10/01 13:04:58;;;;;;;3.10;1.20;;;21.60;1.00;;;;;;5077098;27;20436;-76
2021/10/01 13:07:43;;;;;;;2.67;1.07;;;21.30;1.00;;;;;;5068550;28;20545;-78
2021/10/01 13:10:24;;;;;;;5.60;1.90;;;21.20;1.00;;;;;;5071441;28;20488;-78
2021/10/01 13:12:54;;;;;;;3.27;1.50;;;21.00;1.00;;;;;;5071893;28;20419;-76
2021/10/01 13:15:24;;;;;;;3.33;1.50;;;20.90;1.00;;;;;;5069786;28;20462;-77
2021/10/01 13:18:07;;;;;;;2.20;1.10;;;20.70;1.00;;;;;;5077059;28;20417;-76
2021/10/01 13:20:35;;;;;;;4.53;1.73;;;20.60;1.00;;;;;;5076915;28;20518;-78
2021/10/01 13:23:06;;;;;;;1.60;0.80;;;20.50;1.00;;;;;;5080937;28;20411;-79
2021/10/01 13:25:35;;;;;;;2.07;1.00;;;20.30;1.00;;;;;;5081615;28;21682;-80
2021/10/01 13:28:03;;;;;;;1.93;0.93;;;20.20;1.00;;;;;;5067753;28;20427;-80
2021/10/01 13:30:30;;;;;;;2.50;1.20;;;20.20;1.00;;;;;;5078799;28;20435;-79
2021/10/01 13:32:57;;;;;;;2.33;1.07;;;20.20;1.00;;;;;;5069882;28;20413;-80
2021/10/01 13:35:26;;;;;;;3.27;0.83;;;20.10;1.00;;;;;;5078389;28;20538;-79
2021/10/01 13:37:53;;;;;;;6.07;1.30;;;20.00;1.00;;;;;;5083335;28;20416;-77
2021/10/01 13:40:20;;;;;;;1.93;1.00;;;20.10;1.00;;;;;;5081353;28;20423;-77
2021/10/01 13:42:47;;;;;;;2.70;1.07;;;20.00;1.00;;;;;;5080381;28;20442;-79
2021/10/01 13:45:14;;;;;;;2.50;1.10;;;20.00;1.00;;;;;;5085062;28;20434;-79
2021/10/01 13:47:41;;;;;;;2.23;1.10;;;19.90;1.00;;;;;;5083310;28;20415;-79
2021/10/01 13:50:11;;;;;;;2.10;1.13;;;19.80;1.00;;;;;;5069425;28;22254;-79
2021/10/01 13:52:39;;;;;;;2.13;0.87;;;19.80;1.00;;;;;;5083054;28;20909;-79
2021/10/01 13:55:08;;;;;;;4.50;1.40;;;19.80;1.00;;;;;;5085093;28;20456;-79
2021/10/01 13:57:35;;;;;;;2.13;1.40;;;19.80;1.00;;;;;;5082157;28;20412;-78
2021/10/01 14:00:02;;;;;;;2.83;1.20;;;19.70;1.00;;;;;;5083614;28;21901;-79
2021/10/01 14:02:29;;;;;;;3.37;1.17;;;19.60;1.00;;;;;;5082058;28;20414;-79
2021/10/01 14:04:56;;;;;;;5.87;1.20;;;19.40;1.00;;;;;;5084241;28;20467;-79
2021/10/01 14:07:23;;;;;;;2.70;0.97;;;19.30;1.00;;;;;;5083906;28;20454;-77
2021/10/01 14:09:51;;;;;;;1.87;0.87;;;19.30;1.00;;;;;;5082600;28;20412;-78
2021/10/01 14:12:18;;;;;;;2.73;1.00;;;19.20;1.00;;;;;;5081255;28;20456;-77
2021/10/01 14:14:45;;;;;;;1.50;0.90;;;19.10;1.00;;;;;;5076455;28;20448;-78
2021/10/01 14:17:12;;;;;;;2.10;1.00;;;19.00;1.00;;;;;;5078925;28;20405;-78
2021/10/01 14:19:38;;;;;;;2.73;1.37;;;19.00;1.00;;;;;;5075151;28;20546;-79
2021/10/01 14:22:05;;;;;;;2.30;1.20;;;19.00;1.00;;;;;;5082099;28;20413;-78
2021/10/01 14:24:33;;;;;;;2.13;1.00;;;19.00;1.00;;;;;;5081459;28;20420;-77
2021/10/01 14:27:01;;;;;;;2.17;1.00;;;18.90;1.00;;;;;;5078179;28;20415;-77
2021/10/01 14:29:28;;;;;;;1.67;0.97;;;18.90;1.00;;;;;;5079410;28;20409;-78
2021/10/01 14:31:55;;;;;;;1.67;1.03;;;18.80;1.00;;;;;;5075226;28;20433;-76
2021/10/01 14:34:22;;;;;;;2.47;1.33;;;18.80;1.00;;;;;;5077264;28;20412;-79
2021/10/01 14:36:49;;;;;;;3.40;1.97;;;18.90;1.00;;;;;;5073924;28;20511;-79
2021/10/01 14:39:16;;;;;;;1.57;0.90;;;18.90;1.00;;;;;;5077418;28;20588;-77
2021/10/01 14:41:42;;;;;;;2.03;1.30;;;18.90;1.00;;;;;;5077687;28;20420;-77
2021/10/01 14:44:11;;;;;;;3.37;1.20;;;18.80;1.00;;;;;;5079817;28;20450;-80
2021/10/01 14:46:38;;;;;;;7.37;4.17;;;18.70;1.00;;;;;;5080656;28;20412;-77
2021/10/01 14:49:06;;;;;;;3.10;1.20;;;18.70;1.00;;;;;;5077749;28;20415;-78
2021/10/01 14:51:33;;;;;;;2.30;1.50;;;18.60;1.00;;;;;;5080367;28;20420;-79